sensor_id;sensor_type;location;lat;lon;timestamp;temperature;humidity
3281;DHT22;1652;51.31805600;6.20194400;2024-02-15T00:01:26;12.10;99.90
3281;DHT22;1652;51.31805600;6.20194400;2024-02-15T00:03:53;12.10;99.90
3281;DHT22;1652;51.31805600;6.20194400;2024-02-15T00:06:20;12.20;99.90
3281;DHT22;1652;51.31805600;6.20194400;2024-02-15T00:08:47;12.20;99.90
3281;DHT22;1652;51.31805600;6.20194400;2024-02-15T00:11:16;12.20;99.90
3281;DHT22;1652;51.31805600;6.20194400;2024-02-15T00:13:43;12.20;99.90
3281;DHT22;1652;51.31805600;6.20194400;2024-02-15T00:16:14;12.20;99.90
3281;DHT22;1652;51.31805600;6.20194400;2024-02-15T00:18:41;12.20;99.90
3281;DHT22;1652;51.31805600;6.20194400;2024-02-15T00:21:08;12.20;99.90
3281;DHT22;1652;51.31805600;6.20194400;2024-02-15T00:23:35;12.10;99.90
3281;DHT22;1652;51.31805600;6.20194400;2024-02-15T00:26:02;12.20;99.90
3281;DHT22;1652;51.31805600;6.20194400;2024-02-15T00:28:29;12.20;99.90
3281;DHT22;1652;51.31805600;6.20194400;2024-02-15T00:30:56;12.20;99.90
3281;DHT22;1652;51.31805600;6.20194400;2024-02-15T00:33:23;12.10;99.90
3281;DHT22;1652;51.31805600;6.20194400;2024-02-15T00:35:50;12.20;99.90
3281;DHT22;1652;51.31805600;6.20194400;2024-02-15T00:38:18;12.20;99.90
3281;DHT22;1652;51.31805600;6.20194400;2024-02-15T00:40:45;12.20;99.90
3281;DHT22;1652;51.31805600;6.20194400;2024-02-15T00:43:14;12.10;99.90
3281;DHT22;1652;51.31805600;6.20194400;2024-02-15T00:45:41;12.10;99.90
3281;DHT22;1652;51.31805600;6.20194400;2024-02-15T00:48:08;12.10;99.90
3281;DHT22;1652;51.31805600;6.20194400;2024-02-15T00:50:36;12.10;99.90
3281;DHT22;1652;51.31805600;6.20194400;2024-02-15T00:53:04;12.20;99.90
3281;DHT22;1652;51.31805600;6.20194400;2024-02-15T00:55:31;12.20;99.90
3281;DHT22;1652;51.31805600;6.20194400;2024-02-15T00:57:59;12.10;99.90
3281;DHT22;1652;51.31805600;6.20194400;2024-02-15T01:00:25;12.20;99.90
3281;DHT22;1652;51.31805600;6.20194400;2024-02-15T01:02:53;12.20;99.90
3281;DHT22;1652;51.31805600;6.20194400;2024-02-15T01:05:20;12.20;99.90
3281;DHT22;1652;51.31805600;6.20194400;2024-02-15T01:07:48;12.20;99.90
3281;DHT22;1652;51.31805600;6.20194400;2024-02-15T01:10:16;12.20;99.90
3281;DHT22;1652;51.31805600;6.20194400;2024-02-15T01:12:42;12.30;99.90
3281;DHT22;1652;51.31805600;6.20194400;2024-02-15T01:15:10;12.30;99.90
3281;DHT22;1652;51.31805600;6.20194400;2024-02-15T01:17:37;12.30;99.90
3281;DHT22;1652;51.31805600;6.20194400;2024-02-15T01:20:05;12.30;99.90
3281;DHT22;1652;51.31805600;6.20194400;2024-02-15T01:22:33;12.30;99.90
3281;DHT22;1652;51.31805600;6.20194400;2024-02-15T01:25:00;12.40;99.90
3281;DHT22;1652;51.31805600;6.20194400;2024-02-15T01:27:27;12.30;99.90
3281;DHT22;1652;51.31805600;6.20194400;2024-02-15T01:29:57;12.30;92.60
3281;DHT22;1652;51.31805600;6.20194400;2024-02-15T01:32:24;12.40;99.90
3281;DHT22;1652;51.31805600;6.20194400;2024-02-15T01:34:52;12.40;1.00
3281;DHT22;1652;51.31805600;6.20194400;2024-02-15T01:37:22;12.40;82.90
3281;DHT22;1652;51.31805600;6.20194400;2024-02-15T01:39:49;12.40;1.00
3281;DHT22;1652;51.31805600;6.20194400;2024-02-15T01:42:16;12.30;1.00
3281;DHT22;1652;51.31805600;6.20194400;2024-02-15T01:44:43;12.40;45.10
3281;DHT22;1652;51.31805600;6.20194400;2024-02-15T01:47:16;12.40;89.90
3281;DHT22;1652;51.31805600;6.20194400;2024-02-15T01:49:44;12.40;41.10
3281;DHT22;1652;51.31805600;6.20194400;2024-02-15T01:52:11;12.40;24.50
3281;DHT22;1652;51.31805600;6.20194400;2024-02-15T01:54:40;12.30;7.30
3281;DHT22;1652;51.31805600;6.20194400;2024-02-15T01:57:07;12.30;50.40
3281;DHT22;1652;51.31805600;6.20194400;2024-02-15T01:59:34;12.40;99.90
3281;DHT22;1652;51.31805600;6.20194400;2024-02-15T02:02:02;12.40;52.30
3281;DHT22;1652;51.31805600;6.20194400;2024-02-15T02:04:30;12.40;1.20
3281;DHT22;1652;51.31805600;6.20194400;2024-02-15T02:06:58;12.40;1.00
3281;DHT22;1652;51.31805600;6.20194400;2024-02-15T02:09:26;12.40;1.00
3281;DHT22;1652;51.31805600;6.20194400;2024-02-15T02:11:53;12.40;1.00
3281;DHT22;1652;51.31805600;6.20194400;2024-02-15T02:14:20;12.30;1.00
3281;DHT22;1652;51.31805600;6.20194400;2024-02-15T02:16:47;12.30;1.00
3281;DHT22;1652;51.31805600;6.20194400;2024-02-15T02:19:14;12.30;1.00
3281;DHT22;1652;51.31805600;6.20194400;2024-02-15T02:21:41;12.30;1.00
3281;DHT22;1652;51.31805600;6.20194400;2024-02-15T02:24:21;12.30;1.00
3281;DHT22;1652;51.31805600;6.20194400;2024-02-15T02:26:49;12.20;1.00
3281;DHT22;1652;51.31805600;6.20194400;2024-02-15T02:29:16;12.30;24.60
3281;DHT22;1652;51.31805600;6.20194400;2024-02-15T02:31:43;12.30;1.00
3281;DHT22;1652;51.31805600;6.20194400;2024-02-15T02:34:10;12.30;1.00
3281;DHT22;1652;51.31805600;6.20194400;2024-02-15T02:36:37;12.30;1.00
3281;DHT22;1652;51.31805600;6.20194400;2024-02-15T02:39:04;12.30;1.00
3281;DHT22;1652;51.31805600;6.20194400;2024-02-15T02:41:31;12.30;19.40
3281;DHT22;1652;51.31805600;6.20194400;2024-02-15T02:43:58;12.30;1.00
3281;DHT22;1652;51.31805600;6.20194400;2024-02-15T02:46:28;12.30;1.00
3281;DHT22;1652;51.31805600;6.20194400;2024-02-15T02:48:55;12.30;1.00
3281;DHT22;1652;51.31805600;6.20194400;2024-02-15T02:51:22;12.30;1.00
3281;DHT22;1652;51.31805600;6.20194400;2024-02-15T02:53:49;12.40;1.00
3281;DHT22;1652;51.31805600;6.20194400;2024-02-15T02:56:16;12.30;1.00
3281;DHT22;1652;51.31805600;6.20194400;2024-02-15T02:58:45;12.40;1.00
3281;DHT22;1652;51.31805600;6.20194400;2024-02-15T03:01:12;12.40;1.00
3281;DHT22;1652;51.31805600;6.20194400;2024-02-15T03:03:40;12.40;1.00
3281;DHT22;1652;51.31805600;6.20194400;2024-02-15T03:06:07;12.40;1.00
3281;DHT22;1652;51.31805600;6.20194400;2024-02-15T03:08:34;12.30;1.00
3281;DHT22;1652;51.31805600;6.20194400;2024-02-15T03:11:01;12.30;1.00
3281;DHT22;1652;51.31805600;6.20194400;2024-02-15T03:13:28;12.20;1.00
3281;DHT22;1652;51.31805600;6.20194400;2024-02-15T03:15:55;12.20;1.00
3281;DHT22;1652;51.31805600;6.20194400;2024-02-15T03:18:22;12.20;1.00
3281;DHT22;1652;51.31805600;6.20194400;2024-02-15T03:20:51;12.20;1.00
3281;DHT22;1652;51.31805600;6.20194400;2024-02-15T03:23:18;12.10;1.00
3281;DHT22;1652;51.31805600;6.20194400;2024-02-15T03:25:45;12.10;1.00
3281;DHT22;1652;51.31805600;6.20194400;2024-02-15T03:28:12;12.10;1.00
3281;DHT22;1652;51.31805600;6.20194400;2024-02-15T03:30:39;12.10;1.00
3281;DHT22;1652;51.31805600;6.20194400;2024-02-15T03:33:06;12.10;1.00
3281;DHT22;1652;51.31805600;6.20194400;2024-02-15T03:35:34;12.10;1.00
3281;DHT22;1652;51.31805600;6.20194400;2024-02-15T03:38:01;12.10;1.00
3281;DHT22;1652;51.31805600;6.20194400;2024-02-15T03:40:28;12.10;1.00
3281;DHT22;1652;51.31805600;6.20194400;2024-02-15T03:42:57;12.10;1.00
3281;DHT22;1652;51.31805600;6.20194400;2024-02-15T03:45:24;12.20;1.00
3281;DHT22;1652;51.31805600;6.20194400;2024-02-15T03:47:53;12.20;1.00
3281;DHT22;1652;51.31805600;6.20194400;2024-02-15T03:50:21;12.20;1.00
3281;DHT22;1652;51.31805600;6.20194400;2024-02-15T03:52:49;12.20;1.00
3281;DHT22;1652;51.31805600;6.20194400;2024-02-15T03:55:17;12.30;1.00
3281;DHT22;1652;51.31805600;6.20194400;2024-02-15T03:57:45;12.30;1.00
3281;DHT22;1652;51.31805600;6.20194400;2024-02-15T04:00:13;12.30;1.00
3281;DHT22;1652;51.31805600;6.20194400;2024-02-15T04:02:49;12.20;1.00
3281;DHT22;1652;51.31805600;6.20194400;2024-02-15T04:05:16;12.20;1.00
3281;DHT22;1652;51.31805600;6.20194400;2024-02-15T04:07:45;12.30;1.00
3281;DHT22;1652;51.31805600;6.20194400;2024-02-15T04:10:12;12.20;1.00
3281;DHT22;1652;51.31805600;6.20194400;2024-02-15T04:12:39;12.10;1.00
3281;DHT22;1652;51.31805600;6.20194400;2024-02-15T04:15:09;12.10;1.00
3281;DHT22;1652;51.31805600;6.20194400;2024-02-15T04:17:41;12.10;1.00
3281;DHT22;1652;51.31805600;6.20194400;2024-02-15T04:20:12;12.10;1.00
3281;DHT22;1652;51.31805600;6.20194400;2024-02-15T04:22:41;12.10;1.00
3281;DHT22;1652;51.31805600;6.20194400;2024-02-15T04:25:10;12.20;1.00
3281;DHT22;1652;51.31805600;6.20194400;2024-02-15T04:27:38;12.30;1.00
3281;DHT22;1652;51.31805600;6.20194400;2024-02-15T04:30:06;12.40;1.00
3281;DHT22;1652;51.31805600;6.20194400;2024-02-15T04:32:35;12.40;1.00
3281;DHT22;1652;51.31805600;6.20194400;2024-02-15T04:35:04;12.40;99.90
3281;DHT22;1652;51.31805600;6.20194400;2024-02-15T04:37:35;12.40;99.90
3281;DHT22;1652;51.31805600;6.20194400;2024-02-15T04:40:04;12.40;1.00
3281;DHT22;1652;51.31805600;6.20194400;2024-02-15T04:42:37;12.30;99.90
3281;DHT22;1652;51.31805600;6.20194400;2024-02-15T04:45:08;12.30;1.00
3281;DHT22;1652;51.31805600;6.20194400;2024-02-15T04:47:37;12.40;99.90
3281;DHT22;1652;51.31805600;6.20194400;2024-02-15T04:50:04;12.40;99.90
3281;DHT22;1652;51.31805600;6.20194400;2024-02-15T04:52:33;12.40;1.00
3281;DHT22;1652;51.31805600;6.20194400;2024-02-15T04:55:00;12.30;99.90
3281;DHT22;1652;51.31805600;6.20194400;2024-02-15T04:57:32;12.30;1.00
3281;DHT22;1652;51.31805600;6.20194400;2024-02-15T05:00:01;12.20;1.00
3281;DHT22;1652;51.31805600;6.20194400;2024-02-15T05:02:37;12.10;1.00
3281;DHT22;1652;51.31805600;6.20194400;2024-02-15T05:05:08;12.10;1.00
3281;DHT22;1652;51.31805600;6.20194400;2024-02-15T05:07:36;12.20;1.00
3281;DHT22;1652;51.31805600;6.20194400;2024-02-15T05:10:07;12.20;1.00
3281;DHT22;1652;51.31805600;6.20194400;2024-02-15T05:12:37;12.20;1.00
3281;DHT22;1652;51.31805600;6.20194400;2024-02-15T05:15:04;12.20;1.00
3281;DHT22;1652;51.31805600;6.20194400;2024-02-15T05:17:41;12.10;1.00
3281;DHT22;1652;51.31805600;6.20194400;2024-02-15T05:20:09;12.10;1.00
3281;DHT22;1652;51.31805600;6.20194400;2024-02-15T05:22:41;12.20;1.00
3281;DHT22;1652;51.31805600;6.20194400;2024-02-15T05:25:17;12.20;1.00
3281;DHT22;1652;51.31805600;6.20194400;2024-02-15T05:27:51;12.20;1.00
3281;DHT22;1652;51.31805600;6.20194400;2024-02-15T05:30:21;12.20;1.00
3281;DHT22;1652;51.31805600;6.20194400;2024-02-15T05:32:49;12.10;1.00
3281;DHT22;1652;51.31805600;6.20194400;2024-02-15T05:35:17;12.10;1.00
3281;DHT22;1652;51.31805600;6.20194400;2024-02-15T05:37:44;12.10;1.00
3281;DHT22;1652;51.31805600;6.20194400;2024-02-15T05:40:12;12.00;1.00
3281;DHT22;1652;51.31805600;6.20194400;2024-02-15T05:42:44;12.10;29.90
3281;DHT22;1652;51.31805600;6.20194400;2024-02-15T05:47:55;12.10;1.00
3281;DHT22;1652;51.31805600;6.20194400;2024-02-15T05:50:22;12.00;1.00
3281;DHT22;1652;51.31805600;6.20194400;2024-02-15T05:52:51;12.00;50.50
3281;DHT22;1652;51.31805600;6.20194400;2024-02-15T05:55:22;11.90;37.80
3281;DHT22;1652;51.31805600;6.20194400;2024-02-15T05:57:49;11.90;85.10
3281;DHT22;1652;51.31805600;6.20194400;2024-02-15T06:00:16;12.00;93.40
3281;DHT22;1652;51.31805600;6.20194400;2024-02-15T06:02:49;11.90;97.20
3281;DHT22;1652;51.31805600;6.20194400;2024-02-15T06:05:17;11.90;99.90
3281;DHT22;1652;51.31805600;6.20194400;2024-02-15T06:07:44;11.90;93.50
3281;DHT22;1652;51.31805600;6.20194400;2024-02-15T06:10:14;11.90;99.90
3281;DHT22;1652;51.31805600;6.20194400;2024-02-15T06:12:42;11.90;99.90
3281;DHT22;1652;51.31805600;6.20194400;2024-02-15T06:15:09;12.00;99.90
3281;DHT22;1652;51.31805600;6.20194400;2024-02-15T06:17:43;12.00;62.30
3281;DHT22;1652;51.31805600;6.20194400;2024-02-15T06:20:15;11.90;69.80
3281;DHT22;1652;51.31805600;6.20194400;2024-02-15T06:22:45;12.00;99.90
3281;DHT22;1652;51.31805600;6.20194400;2024-02-15T06:25:13;11.90;75.80
3281;DHT22;1652;51.31805600;6.20194400;2024-02-15T06:27:42;12.00;99.90
3281;DHT22;1652;51.31805600;6.20194400;2024-02-15T06:30:10;11.90;58.50
3281;DHT22;1652;51.31805600;6.20194400;2024-02-15T06:32:55;11.90;99.90
3281;DHT22;1652;51.31805600;6.20194400;2024-02-15T06:35:41;11.90;99.90
3281;DHT22;1652;51.31805600;6.20194400;2024-02-15T06:38:27;11.90;99.90
3281;DHT22;1652;51.31805600;6.20194400;2024-02-15T06:41:13;11.90;99.90
3281;DHT22;1652;51.31805600;6.20194400;2024-02-15T06:43:40;11.90;99.90
3281;DHT22;1652;51.31805600;6.20194400;2024-02-15T06:46:07;11.90;99.90
3281;DHT22;1652;51.31805600;6.20194400;2024-02-15T06:48:35;12.00;99.90
3281;DHT22;1652;51.31805600;6.20194400;2024-02-15T06:51:03;11.90;99.90
3281;DHT22;1652;51.31805600;6.20194400;2024-02-15T06:53:30;11.90;99.90
3281;DHT22;1652;51.31805600;6.20194400;2024-02-15T06:55:57;11.90;99.90
3281;DHT22;1652;51.31805600;6.20194400;2024-02-15T06:58:24;11.90;99.90
3281;DHT22;1652;51.31805600;6.20194400;2024-02-15T07:00:51;11.80;99.90
3281;DHT22;1652;51.31805600;6.20194400;2024-02-15T07:03:18;11.80;99.90
3281;DHT22;1652;51.31805600;6.20194400;2024-02-15T07:05:45;11.80;99.90
3281;DHT22;1652;51.31805600;6.20194400;2024-02-15T07:08:12;11.90;99.90
3281;DHT22;1652;51.31805600;6.20194400;2024-02-15T07:10:42;11.90;99.90
3281;DHT22;1652;51.31805600;6.20194400;2024-02-15T07:13:09;11.90;99.90
3281;DHT22;1652;51.31805600;6.20194400;2024-02-15T07:15:37;11.80;99.90
3281;DHT22;1652;51.31805600;6.20194400;2024-02-15T07:18:06;11.90;99.90
3281;DHT22;1652;51.31805600;6.20194400;2024-02-15T07:20:33;11.90;99.90
3281;DHT22;1652;51.31805600;6.20194400;2024-02-15T07:23:01;11.80;99.90
3281;DHT22;1652;51.31805600;6.20194400;2024-02-15T07:25:28;11.90;99.90
3281;DHT22;1652;51.31805600;6.20194400;2024-02-15T07:27:55;11.90;99.90
3281;DHT22;1652;51.31805600;6.20194400;2024-02-15T07:30:23;11.80;99.90
3281;DHT22;1652;51.31805600;6.20194400;2024-02-15T07:32:52;11.90;99.90
3281;DHT22;1652;51.31805600;6.20194400;2024-02-15T07:35:19;11.90;99.90
3281;DHT22;1652;51.31805600;6.20194400;2024-02-15T07:37:53;11.90;99.90
3281;DHT22;1652;51.31805600;6.20194400;2024-02-15T07:40:25;11.90;99.90
3281;DHT22;1652;51.31805600;6.20194400;2024-02-15T07:42:57;11.90;99.90
3281;DHT22;1652;51.31805600;6.20194400;2024-02-15T07:45:26;11.90;99.90
3281;DHT22;1652;51.31805600;6.20194400;2024-02-15T07:47:54;11.90;99.90
3281;DHT22;1652;51.31805600;6.20194400;2024-02-15T07:50:21;11.90;99.90
3281;DHT22;1652;51.31805600;6.20194400;2024-02-15T07:52:49;11.90;99.90
3281;DHT22;1652;51.31805600;6.20194400;2024-02-15T07:55:17;11.90;99.90
3281;DHT22;1652;51.31805600;6.20194400;2024-02-15T07:57:44;11.80;99.90
3281;DHT22;1652;51.31805600;6.20194400;2024-02-15T08:00:15;11.90;99.90
3281;DHT22;1652;51.31805600;6.20194400;2024-02-15T08:02:43;11.90;99.90
3281;DHT22;1652;51.31805600;6.20194400;2024-02-15T08:05:11;11.90;99.90
3281;DHT22;1652;51.31805600;6.20194400;2024-02-15T08:07:41;11.90;99.90
3281;DHT22;1652;51.31805600;6.20194400;2024-02-15T08:10:09;11.90;99.90
3281;DHT22;1652;51.31805600;6.20194400;2024-02-15T08:12:46;12.00;99.90
3281;DHT22;1652;51.31805600;6.20194400;2024-02-15T08:15:15;12.00;99.90
3281;DHT22;1652;51.31805600;6.20194400;2024-02-15T08:17:44;11.90;99.90
3281;DHT22;1652;51.31805600;6.20194400;2024-02-15T08:20:14;11.90;99.90
3281;DHT22;1652;51.31805600;6.20194400;2024-02-15T08:22:41;12.00;99.90
3281;DHT22;1652;51.31805600;6.20194400;2024-02-15T08:25:11;12.00;99.90
3281;DHT22;1652;51.31805600;6.20194400;2024-02-15T08:27:40;12.00;99.90
3281;DHT22;1652;51.31805600;6.20194400;2024-02-15T08:30:13;12.00;99.90
3281;DHT22;1652;51.31805600;6.20194400;2024-02-15T08:32:41;12.10;99.90
3281;DHT22;1652;51.31805600;6.20194400;2024-02-15T08:35:10;12.00;99.90
3281;DHT22;1652;51.31805600;6.20194400;2024-02-15T08:37:38;12.00;99.90
3281;DHT22;1652;51.31805600;6.20194400;2024-02-15T08:40:08;12.00;99.90
3281;DHT22;1652;51.31805600;6.20194400;2024-02-15T08:42:39;12.10;99.90
3281;DHT22;1652;51.31805600;6.20194400;2024-02-15T08:45:07;12.10;99.90
3281;DHT22;1652;51.31805600;6.20194400;2024-02-15T08:47:38;12.10;99.90
3281;DHT22;1652;51.31805600;6.20194400;2024-02-15T08:50:07;12.10;99.90
3281;DHT22;1652;51.31805600;6.20194400;2024-02-15T08:52:37;12.00;99.90
3281;DHT22;1652;51.31805600;6.20194400;2024-02-15T08:55:08;12.00;99.90
3281;DHT22;1652;51.31805600;6.20194400;2024-02-15T08:57:37;12.00;99.90
3281;DHT22;1652;51.31805600;6.20194400;2024-02-15T09:00:05;12.00;99.90
3281;DHT22;1652;51.31805600;6.20194400;2024-02-15T09:02:36;12.10;99.90
3281;DHT22;1652;51.31805600;6.20194400;2024-02-15T09:05:03;12.10;99.90
3281;DHT22;1652;51.31805600;6.20194400;2024-02-15T09:07:30;12.10;99.90
3281;DHT22;1652;51.31805600;6.20194400;2024-02-15T09:09:57;12.20;99.90
3281;DHT22;1652;51.31805600;6.20194400;2024-02-15T09:12:24;12.30;99.90
3281;DHT22;1652;51.31805600;6.20194400;2024-02-15T09:14:51;12.40;58.40
3281;DHT22;1652;51.31805600;6.20194400;2024-02-15T09:17:18;12.50;51.60
3281;DHT22;1652;51.31805600;6.20194400;2024-02-15T09:19:47;12.60;74.50
3281;DHT22;1652;51.31805600;6.20194400;2024-02-15T09:22:16;12.70;2.10
3281;DHT22;1652;51.31805600;6.20194400;2024-02-15T09:24:43;12.70;1.00
3281;DHT22;1652;51.31805600;6.20194400;2024-02-15T09:27:10;12.80;1.00
3281;DHT22;1652;51.31805600;6.20194400;2024-02-15T09:29:38;12.80;1.00
3281;DHT22;1652;51.31805600;6.20194400;2024-02-15T09:32:07;13.00;1.00
3281;DHT22;1652;51.31805600;6.20194400;2024-02-15T09:34:34;13.10;1.00
3281;DHT22;1652;51.31805600;6.20194400;2024-02-15T09:37:01;13.20;1.00
3281;DHT22;1652;51.31805600;6.20194400;2024-02-15T09:39:28;13.20;99.90
3281;DHT22;1652;51.31805600;6.20194400;2024-02-15T09:41:55;13.20;99.90
3281;DHT22;1652;51.31805600;6.20194400;2024-02-15T09:44:27;13.20;99.90
3281;DHT22;1652;51.31805600;6.20194400;2024-02-15T09:47:03;13.30;99.90
3281;DHT22;1652;51.31805600;6.20194400;2024-02-15T09:49:36;13.30;99.90
3281;DHT22;1652;51.31805600;6.20194400;2024-02-15T09:52:03;13.30;99.90
3281;DHT22;1652;51.31805600;6.20194400;2024-02-15T09:54:32;13.30;99.90
3281;DHT22;1652;51.31805600;6.20194400;2024-02-15T09:57:01;13.30;99.90
3281;DHT22;1652;51.31805600;6.20194400;2024-02-15T09:59:29;13.50;99.90
3281;DHT22;1652;51.31805600;6.20194400;2024-02-15T10:01:58;13.50;99.90
3281;DHT22;1652;51.31805600;6.20194400;2024-02-15T10:04:26;13.50;42.70
3281;DHT22;1652;51.31805600;6.20194400;2024-02-15T10:06:52;13.60;21.60
3281;DHT22;1652;51.31805600;6.20194400;2024-02-15T10:09:30;13.60;90.60
3281;DHT22;1652;51.31805600;6.20194400;2024-02-15T10:11:59;13.60;96.10
3281;DHT22;1652;51.31805600;6.20194400;2024-02-15T10:14:27;13.70;99.90
3281;DHT22;1652;51.31805600;6.20194400;2024-02-15T10:16:55;13.70;49.20
3281;DHT22;1652;51.31805600;6.20194400;2024-02-15T10:19:23;13.80;99.90
3281;DHT22;1652;51.31805600;6.20194400;2024-02-15T10:21:54;14.00;1.00
3281;DHT22;1652;51.31805600;6.20194400;2024-02-15T10:24:24;14.10;1.00
3281;DHT22;1652;51.31805600;6.20194400;2024-02-15T10:27:00;14.20;1.00
3281;DHT22;1652;51.31805600;6.20194400;2024-02-15T10:29:31;14.10;1.00
3281;DHT22;1652;51.31805600;6.20194400;2024-02-15T10:31:59;14.20;1.00
3281;DHT22;1652;51.31805600;6.20194400;2024-02-15T10:34:27;14.30;1.00
3281;DHT22;1652;51.31805600;6.20194400;2024-02-15T10:37:14;14.30;1.00
3281;DHT22;1652;51.31805600;6.20194400;2024-02-15T10:39:43;14.50;1.00
3281;DHT22;1652;51.31805600;6.20194400;2024-02-15T10:42:10;14.60;1.00
3281;DHT22;1652;51.31805600;6.20194400;2024-02-15T10:44:38;14.60;1.00
3281;DHT22;1652;51.31805600;6.20194400;2024-02-15T10:47:07;14.70;99.90
3281;DHT22;1652;51.31805600;6.20194400;2024-02-15T10:49:35;14.90;99.90
3281;DHT22;1652;51.31805600;6.20194400;2024-02-15T10:52:04;14.90;99.90
3281;DHT22;1652;51.31805600;6.20194400;2024-02-15T10:54:41;14.90;99.90
3281;DHT22;1652;51.31805600;6.20194400;2024-02-15T10:57:10;15.10;99.90
3281;DHT22;1652;51.31805600;6.20194400;2024-02-15T11:00:08;15.10;99.90
3281;DHT22;1652;51.31805600;6.20194400;2024-02-15T11:03:00;15.30;1.00
3281;DHT22;1652;51.31805600;6.20194400;2024-02-15T11:05:34;15.40;1.00
3281;DHT22;1652;51.31805600;6.20194400;2024-02-15T11:08:05;15.50;1.00
3281;DHT22;1652;51.31805600;6.20194400;2024-02-15T11:10:34;15.60;99.90
3281;DHT22;1652;51.31805600;6.20194400;2024-02-15T11:13:02;15.60;99.90
3281;DHT22;1652;51.31805600;6.20194400;2024-02-15T11:18:03;15.80;1.00
3281;DHT22;1652;51.31805600;6.20194400;2024-02-15T11:23:00;16.00;99.90
3281;DHT22;1652;51.31805600;6.20194400;2024-02-15T11:25:35;16.10;1.00
3281;DHT22;1652;51.31805600;6.20194400;2024-02-15T11:30:49;16.40;99.90
3281;DHT22;1652;51.31805600;6.20194400;2024-02-15T11:33:32;16.50;1.00
3281;DHT22;1652;51.31805600;6.20194400;2024-02-15T11:36:09;16.50;99.90
3281;DHT22;1652;51.31805600;6.20194400;2024-02-15T11:38:38;16.60;99.90
3281;DHT22;1652;51.31805600;6.20194400;2024-02-15T11:41:10;16.70;7.70
3281;DHT22;1652;51.31805600;6.20194400;2024-02-15T11:46:13;16.80;1.00
3281;DHT22;1652;51.31805600;6.20194400;2024-02-15T11:48:40;17.00;99.90
3281;DHT22;1652;51.31805600;6.20194400;2024-02-15T11:51:08;17.10;99.90
3281;DHT22;1652;51.31805600;6.20194400;2024-02-15T11:53:38;17.10;99.90
3281;DHT22;1652;51.31805600;6.20194400;2024-02-15T11:56:07;17.10;1.00
3281;DHT22;1652;51.31805600;6.20194400;2024-02-15T11:58:37;17.20;1.00
3281;DHT22;1652;51.31805600;6.20194400;2024-02-15T12:01:21;17.20;1.00
3281;DHT22;1652;51.31805600;6.20194400;2024-02-15T12:04:06;17.20;1.00
3281;DHT22;1652;51.31805600;6.20194400;2024-02-15T12:06:58;17.40;1.00
3281;DHT22;1652;51.31805600;6.20194400;2024-02-15T12:10:00;17.40;1.00
3281;DHT22;1652;51.31805600;6.20194400;2024-02-15T12:12:52;17.60;1.00
3281;DHT22;1652;51.31805600;6.20194400;2024-02-15T12:15:37;17.60;99.90
3281;DHT22;1652;51.31805600;6.20194400;2024-02-15T12:18:23;17.60;1.00
3281;DHT22;1652;51.31805600;6.20194400;2024-02-15T12:21:11;17.60;99.90
3281;DHT22;1652;51.31805600;6.20194400;2024-02-15T12:23:39;17.60;1.00
3281;DHT22;1652;51.31805600;6.20194400;2024-02-15T12:26:08;17.40;99.90
3281;DHT22;1652;51.31805600;6.20194400;2024-02-15T12:28:36;17.40;99.90
3281;DHT22;1652;51.31805600;6.20194400;2024-02-15T12:31:04;17.30;99.90
3281;DHT22;1652;51.31805600;6.20194400;2024-02-15T12:33:33;17.30;1.00
3281;DHT22;1652;51.31805600;6.20194400;2024-02-15T12:36:07;17.30;99.90
3281;DHT22;1652;51.31805600;6.20194400;2024-02-15T12:38:35;17.30;1.00
3281;DHT22;1652;51.31805600;6.20194400;2024-02-15T12:41:20;17.20;1.00
3281;DHT22;1652;51.31805600;6.20194400;2024-02-15T12:43:53;17.30;1.00
3281;DHT22;1652;51.31805600;6.20194400;2024-02-15T12:46:20;17.30;17.50
3281;DHT22;1652;51.31805600;6.20194400;2024-02-15T12:48:47;17.40;49.70
3281;DHT22;1652;51.31805600;6.20194400;2024-02-15T12:51:14;17.20;1.00
3281;DHT22;1652;51.31805600;6.20194400;2024-02-15T12:53:44;17.20;99.90
3281;DHT22;1652;51.31805600;6.20194400;2024-02-15T12:56:19;17.20;1.00
3281;DHT22;1652;51.31805600;6.20194400;2024-02-15T12:58:46;17.20;99.90
3281;DHT22;1652;51.31805600;6.20194400;2024-02-15T13:01:14;17.20;1.00
3281;DHT22;1652;51.31805600;6.20194400;2024-02-15T13:03:40;17.20;1.00
3281;DHT22;1652;51.31805600;6.20194400;2024-02-15T13:06:07;17.10;1.00
3281;DHT22;1652;51.31805600;6.20194400;2024-02-15T13:08:35;17.20;1.00
3281;DHT22;1652;51.31805600;6.20194400;2024-02-15T13:11:03;17.20;99.90
3281;DHT22;1652;51.31805600;6.20194400;2024-02-15T13:13:30;17.40;1.00
3281;DHT22;1652;51.31805600;6.20194400;2024-02-15T13:15:57;17.50;99.90
3281;DHT22;1652;51.31805600;6.20194400;2024-02-15T13:18:24;17.50;1.00
3281;DHT22;1652;51.31805600;6.20194400;2024-02-15T13:20:55;17.60;1.00
3281;DHT22;1652;51.31805600;6.20194400;2024-02-15T13:23:24;17.70;99.90
3281;DHT22;1652;51.31805600;6.20194400;2024-02-15T13:25:54;17.70;1.00
3281;DHT22;1652;51.31805600;6.20194400;2024-02-15T13:28:23;17.70;99.90
3281;DHT22;1652;51.31805600;6.20194400;2024-02-15T13:30:51;17.70;99.90
3281;DHT22;1652;51.31805600;6.20194400;2024-02-15T13:33:23;17.60;1.00
3281;DHT22;1652;51.31805600;6.20194400;2024-02-15T13:35:53;17.60;1.00
3281;DHT22;1652;51.31805600;6.20194400;2024-02-15T13:38:20;17.60;1.00
3281;DHT22;1652;51.31805600;6.20194400;2024-02-15T13:40:51;17.70;1.00
3281;DHT22;1652;51.31805600;6.20194400;2024-02-15T13:43:18;17.70;1.00
3281;DHT22;1652;51.31805600;6.20194400;2024-02-15T13:45:46;17.80;1.00
3281;DHT22;1652;51.31805600;6.20194400;2024-02-15T13:48:13;17.90;1.00
3281;DHT22;1652;51.31805600;6.20194400;2024-02-15T13:50:42;18.00;1.00
3281;DHT22;1652;51.31805600;6.20194400;2024-02-15T13:53:09;18.00;1.00
3281;DHT22;1652;51.31805600;6.20194400;2024-02-15T13:55:37;18.10;1.00
3281;DHT22;1652;51.31805600;6.20194400;2024-02-15T13:58:04;18.00;1.00
3281;DHT22;1652;51.31805600;6.20194400;2024-02-15T14:00:31;17.90;1.00
3281;DHT22;1652;51.31805600;6.20194400;2024-02-15T14:03:01;17.70;1.00
3281;DHT22;1652;51.31805600;6.20194400;2024-02-15T14:05:32;17.70;1.00
3281;DHT22;1652;51.31805600;6.20194400;2024-02-15T14:08:04;17.60;1.00
3281;DHT22;1652;51.31805600;6.20194400;2024-02-15T14:10:35;17.40;1.00
3281;DHT22;1652;51.31805600;6.20194400;2024-02-15T14:13:04;17.30;1.00
3281;DHT22;1652;51.31805600;6.20194400;2024-02-15T14:15:36;17.10;1.00
3281;DHT22;1652;51.31805600;6.20194400;2024-02-15T14:18:06;17.00;1.00